Ridgewood, South Carolina
Current Conditions -  °F | °C
As of 5:53 AM on Sunday 23 Nov 2014 (Local Time) from KCUB Reporting Station
Light Rain Light Rain  
Wind Chill: 49°   Ceiling: 8500
Heat Index: 49°   Visibility: 4mi
Dew Point: 48°   Wind: 0mph
Humidity: 97%   Direction: NA
Pressure: 30.21"   Gusts: NA
Location:  34.1179°N, 81.0612°W
Report Text: KCUB 231053Z AUTO 00000KT 4SM -RA BR SCT060 OVC085 09/09 A3021 RMK AO2 SLP231 P0006 T00940089
Loading
Personal Weather Stations






























Interactive Weather Map New forecast layout! Learn more

10-Day Weather Forecast

Advertisements
Track Severe Weather on mobile